Time;durP1;ratioP1;P1;durP2;ratioP2;P2;SDS_P1;SDS_P2;PMS_P1;PMS_P2;Temp;Humidity;BMP_temperature;BMP_pressure;BME280_temperature;BME280_humidity;BME280_pressure;Samples;Min_cycle;Max_cycle;Signal;HPM_P1;HPM_P2
2023/01/14 00:01:20;;;;;;;6.40;3.40;;;;;;;5.40;100.00;98902.39;106127;1251;64035;-74
2023/01/14 00:03:47;;;;;;;4.60;3.10;;;;;;;5.39;100.00;98900.66;106154;1254;60341;-75
2023/01/14 00:06:17;;;;;;;5.50;3.40;;;;;;;5.37;100.00;98900.95;106028;1252;60521;-73
2023/01/14 00:08:43;;;;;;;4.80;3.50;;;;;;;5.33;100.00;98903.59;106028;1251;64839;-75
2023/01/14 00:11:12;;;;;;;5.50;3.50;;;;;;;5.31;100.00;98912.16;106060;1253;60507;-76
2023/01/14 00:13:40;;;;;;;4.90;3.20;;;;;;;5.28;100.00;98912.81;106132;1250;63791;-72
2023/01/14 00:16:11;;;;;;;6.00;3.70;;;;;;;5.24;100.00;98917.02;106003;1250;60606;-74
2023/01/14 00:18:38;;;;;;;4.50;3.40;;;;;;;5.21;100.00;98913.82;106062;1254;60520;-76
2023/01/14 00:21:10;;;;;;;6.50;4.00;;;;;;;5.18;100.00;98918.55;106046;1253;65980;-74
2023/01/14 00:23:37;;;;;;;6.80;4.20;;;;;;;5.14;100.00;98919.59;106098;1253;60845;-74
2023/01/14 00:26:05;;;;;;;6.30;4.40;;;;;;;5.11;100.00;98919.75;106088;1251;62874;-74
2023/01/14 00:28:32;;;;;;;6.40;3.80;;;;;;;5.08;100.00;98920.96;106041;1251;60450;-75
2023/01/14 00:31:04;;;;;;;6.40;3.50;;;;;;;5.03;100.00;98922.94;106102;1253;60431;-74
2023/01/14 00:33:31;;;;;;;9.60;4.10;;;;;;;4.99;100.00;98927.34;106154;1253;74407;-75
2023/01/14 00:35:58;;;;;;;6.80;4.10;;;;;;;4.97;100.00;98924.27;106047;1251;60418;-74
2023/01/14 00:38:24;;;;;;;6.60;5.00;;;;;;;4.94;100.00;98923.50;106012;1254;64048;-74
2023/01/14 00:41:07;;;;;;;5.70;4.50;;;;;;;4.91;100.00;98932.46;105992;1251;60470;-73
2023/01/14 00:43:35;;;;;;;5.50;4.60;;;;;;;4.88;100.00;98923.63;106070;1251;60430;-73
2023/01/14 00:46:05;;;;;;;4.00;3.40;;;;;;;4.85;100.00;98921.09;105762;1251;65792;-75
2023/01/14 00:48:33;;;;;;;5.80;4.10;;;;;;;4.83;100.00;98928.07;105837;1251;60456;-74
2023/01/14 00:50:59;;;;;;;7.20;4.50;;;;;;;4.83;100.00;98933.16;106015;1253;71737;-73
2023/01/14 00:53:27;;;;;;;4.80;3.50;;;;;;;4.83;100.00;98922.41;106023;1254;60362;-74
2023/01/14 00:55:54;;;;;;;6.60;4.10;;;;;;;4.82;100.00;98919.98;106039;1251;60433;-74
2023/01/14 00:58:21;;;;;;;9.00;5.00;;;;;;;4.81;100.00;98931.83;106044;1251;64444;-74
2023/01/14 01:00:48;;;;;;;7.20;4.00;;;;;;;4.81;100.00;98927.24;106080;1251;60624;-74
2023/01/14 01:03:15;;;;;;;5.20;3.90;;;;;;;4.81;100.00;98926.90;106061;1251;63805;-73
2023/01/14 01:05:41;;;;;;;7.70;4.10;;;;;;;4.82;100.00;98918.05;106049;1254;60540;-74
2023/01/14 01:08:12;;;;;;;6.70;3.40;;;;;;;4.83;100.00;98922.77;106135;1255;60431;-74
2023/01/14 01:10:41;;;;;;;5.50;4.40;;;;;;;4.81;100.00;98927.60;106083;1254;65360;-73
2023/01/14 01:13:09;;;;;;;6.80;4.10;;;;;;;4.80;100.00;98927.13;106085;1251;60338;-75
2023/01/14 01:15:37;;;;;;;7.70;4.80;;;;;;;4.82;100.00;98933.02;106229;1253;63777;-73
2023/01/14 01:18:05;;;;;;;7.00;4.70;;;;;;;4.82;100.00;98942.18;106031;1254;60453;-73
2023/01/14 01:20:33;;;;;;;5.80;4.50;;;;;;;4.79;100.00;98947.23;106099;1253;60450;-74
2023/01/14 01:23:00;;;;;;;6.30;4.00;;;;;;;4.77;100.00;98950.86;106039;1251;65319;-72
2023/01/14 01:25:27;;;;;;;6.10;3.90;;;;;;;4.75;100.00;98948.85;105816;1251;60966;-74
2023/01/14 01:27:54;;;;;;;5.40;4.60;;;;;;;4.74;100.00;98953.45;106056;1254;62826;-73
2023/01/14 01:30:21;;;;;;;7.70;5.60;;;;;;;4.74;100.00;98955.05;106068;1250;60351;-73
2023/01/14 01:32:48;;;;;;;5.10;4.30;;;;;;;4.73;100.00;98957.20;106088;1251;60526;-73
2023/01/14 01:35:14;;;;;;;6.50;4.10;;;;;;;4.71;100.00;98954.80;106035;1251;60452;-73
2023/01/14 01:37:41;;;;;;;5.80;3.90;;;;;;;4.70;100.00;98959.09;106064;1251;60533;-74
2023/01/14 01:40:10;;;;;;;6.40;4.40;;;;;;;4.69;100.00;98961.98;106039;1251;60459;-74
2023/01/14 01:42:54;;;;;;;7.10;4.60;;;;;;;4.67;100.00;98966.10;106189;1253;60386;-72
2023/01/14 01:45:30;;;;;;;10.10;6.20;;;;;;;4.67;100.00;98967.33;106044;1251;60520;-73
2023/01/14 01:48:06;;;;;;;4.90;4.00;;;;;;;4.65;100.00;98968.98;106101;1253;65976;-74
2023/01/14 01:50:34;;;;;;;5.00;4.10;;;;;;;4.64;100.00;98969.39;106078;1251;60507;-74
2023/01/14 01:53:02;;;;;;;5.40;4.30;;;;;;;4.63;100.00;98974.01;106165;1253;63742;-74
2023/01/14 01:55:32;;;;;;;5.80;4.30;;;;;;;4.60;100.00;98976.58;106074;1250;60450;-74
2023/01/14 01:57:58;;;;;;;7.50;4.80;;;;;;;4.55;100.00;98977.48;106032;1251;60549;-74
2023/01/14 02:00:26;;;;;;;8.90;5.50;;;;;;;4.51;100.00;98978.36;105744;1255;65197;-74
2023/01/14 02:02:57;;;;;;;5.70;4.30;;;;;;;4.48;100.00;98977.95;106144;1251;60447;-74
2023/01/14 02:05:24;;;;;;;5.40;4.20;;;;;;;4.47;100.00;98978.54;106070;1251;63803;-74
2023/01/14 02:07:51;;;;;;;8.20;5.10;;;;;;;4.48;100.00;98980.23;105771;1251;60372;-73
2023/01/14 02:10:19;;;;;;;6.90;4.30;;;;;;;4.51;100.00;98979.10;106049;1253;60354;-73
2023/01/14 02:13:01;;;;;;;8.50;5.50;;;;;;;4.55;100.00;98987.52;106142;1251;64510;-74
2023/01/14 02:15:52;;;;;;;5.60;4.60;;;;;;;4.61;100.00;98984.98;106125;1251;60412;-74
2023/01/14 02:18:37;;;;;;;7.40;4.70;;;;;;;4.70;100.00;98983.89;106096;1251;64326;-75
2023/01/14 02:21:32;;;;;;;6.60;4.90;;;;;;;4.80;100.00;98983.28;106059;1249;60319;-74
2023/01/14 02:24:27;;;;;;;5.40;4.70;;;;;;;4.88;100.00;98987.89;106070;1254;59203;-74
2023/01/14 02:27:07;;;;;;;8.20;6.20;;;;;;;4.95;100.00;98990.20;106086;1251;65936;-73
2023/01/14 02:29:52;;;;;;;8.60;6.10;;;;;;;5.00;100.00;98995.24;105782;1251;60906;-74
2023/01/14 02:32:26;;;;;;;7.60;5.80;;;;;;;5.04;100.00;98994.88;106100;1253;64201;-73
2023/01/14 02:35:11;;;;;;;8.60;5.00;;;;;;;5.08;100.00;98990.65;106149;1253;60446;-75
2023/01/14 02:37:53;;;;;;;11.30;6.30;;;;;;;5.11;100.00;98997.05;106130;1251;60424;-72
2023/01/14 02:40:30;;;;;;;11.30;6.10;;;;;;;5.13;100.00;99001.19;106112;1251;65378;-72
2023/01/14 02:46:05;;;;;;;10.30;5.80;;;;;;;5.13;100.00;98999.97;106170;1251;64459;-75
2023/01/14 02:48:34;;;;;;;8.30;5.10;;;;;;;5.13;100.00;99001.19;106164;1250;60501;-76
2023/01/14 02:51:00;;;;;;;8.20;4.90;;;;;;;5.14;100.00;99001.34;106212;1253;60434;-76
2023/01/14 02:53:27;;;;;;;7.50;4.40;;;;;;;5.16;100.00;98998.95;105808;1250;64808;-75
2023/01/14 02:55:56;;;;;;;6.20;4.60;;;;;;;5.17;100.00;99000.67;106111;1251;60441;-73
2023/01/14 02:58:31;;;;;;;7.80;5.00;;;;;;;5.18;100.00;99008.17;106105;1250;71980;-74
2023/01/14 03:01:33;;;;;;;7.60;4.70;;;;;;;5.21;100.00;99011.08;105712;1254;60570;-75
2023/01/14 03:04:28;;;;;;;7.60;4.70;;;;;;;5.23;100.00;99013.60;105306;1257;60691;-74
2023/01/14 03:07:33;;;;;;;5.80;3.80;;;;;;;5.25;100.00;99016.34;105322;1263;65815;-76
2023/01/14 03:10:09;;;;;;;4.80;4.30;;;;;;;5.29;100.00;99019.86;104950;1270;60381;-74
2023/01/14 03:12:47;;;;;;;5.60;3.90;;;;;;;5.32;100.00;99018.51;105003;1268;64803;-74
2023/01/14 03:15:20;;;;;;;7.20;4.20;;;;;;;5.34;100.00;99019.27;104973;1264;60553;-73
2023/01/14 03:18:09;;;;;;;6.10;4.80;;;;;;;5.36;100.00;99020.23;104956;1264;60522;-74
2023/01/14 03:20:44;;;;;;;6.70;4.60;;;;;;;5.37;100.00;99016.85;104944;1264;65937;-73
2023/01/14 03:23:22;;;;;;;6.40;4.30;;;;;;;5.40;100.00;99022.92;104955;1264;61690;-74
2023/01/14 03:25:52;;;;;;;8.70;5.10;;;;;;;5.41;100.00;99024.95;104958;1268;65690;-74
2023/01/14 03:28:25;;;;;;;10.20;5.10;;;;;;;5.41;100.00;99024.39;105008;1268;60463;-73
2023/01/14 03:30:59;;;;;;;8.80;5.50;;;;;;;5.42;100.00;99021.55;104970;1264;60562;-74
2023/01/14 03:33:58;;;;;;;8.50;4.40;;;;;;;5.44;100.00;99025.17;104961;1268;65881;-73
2023/01/14 03:36:27;;;;;;;7.50;4.60;;;;;;;5.46;100.00;99028.96;104636;1273;60568;-75
2023/01/14 03:38:54;;;;;;;6.10;4.90;;;;;;;5.49;100.00;99033.58;104885;1268;63697;-74
2023/01/14 03:44:16;;;;;;;5.00;4.10;;;;;;;5.52;100.00;99043.67;104965;1266;60492;-74
2023/01/14 03:46:43;;;;;;;7.30;4.30;;;;;;;5.54;100.00;99048.00;105212;1263;65569;-75
2023/01/14 03:49:10;;;;;;;5.10;4.10;;;;;;;5.54;100.00;99056.58;105326;1259;61152;-75
2023/01/14 03:51:50;;;;;;;5.80;3.80;;;;;;;5.56;100.00;99056.70;105332;1259;64046;-75
2023/01/14 03:54:22;;;;;;;;;;;;;;;5.58;100.00;99060.14;105152;1260;60339;-74
2023/01/14 03:57:16;;;;;;;7.50;4.50;;;;;;;5.58;100.00;99053.42;105323;1260;60526;-74
2023/01/14 03:59:53;;;;;;;5.50;3.50;;;;;;;5.59;100.00;99047.77;105362;1260;64968;-74
2023/01/14 04:02:22;;;;;;;5.50;3.80;;;;;;;5.59;100.00;99050.40;105355;1262;60479;-73
2023/01/14 04:04:50;;;;;;;5.10;3.70;;;;;;;5.59;100.00;99053.55;105374;1260;65622;-74
2023/01/14 04:07:17;;;;;;;8.00;4.10;;;;;;;5.58;100.00;99055.37;105322;1260;60557;-76
2023/01/14 04:09:44;;;;;;;7.70;4.00;;;;;;;5.56;100.00;99060.20;105280;1260;60520;-75
2023/01/14 04:12:10;;;;;;;8.20;4.70;;;;;;;5.54;100.00;99064.19;105312;1259;66992;-75
2023/01/14 04:17:22;;;;;;;4.30;3.50;;;;;;;5.47;100.00;99074.54;105901;1255;65463;-76
2023/01/14 04:19:49;;;;;;;7.10;4.40;;;;;;;5.44;100.00;99077.13;105704;1251;60525;-74
2023/01/14 04:22:16;;;;;;;7.60;4.50;;;;;;;5.42;100.00;99079.86;105907;1256;60360;-75
2023/01/14 04:24:42;;;;;;;7.90;4.40;;;;;;;5.41;100.00;99081.89;105869;1257;66845;-74
2023/01/14 04:27:09;;;;;;;8.10;3.70;;;;;;;5.39;100.00;99082.46;105930;1255;61661;-77
2023/01/14 04:29:36;;;;;;;6.20;4.20;;;;;;;5.38;100.00;99081.09;105909;1256;64517;-76
2023/01/14 04:32:03;;;;;;;8.10;4.40;;;;;;;5.35;100.00;99082.84;105931;1256;60457;-75
2023/01/14 04:34:29;;;;;;;6.80;4.30;;;;;;;5.30;100.00;99083.40;105938;1251;61077;-78
2023/01/14 04:36:56;;;;;;;4.90;3.50;;;;;;;5.24;100.00;99081.70;105937;1257;66432;-77
2023/01/14 04:39:23;;;;;;;11.80;6.10;;;;;;;5.19;100.00;99086.20;105601;1253;60572;-76
2023/01/14 04:44:34;;;;;;;8.30;5.00;;;;;;;5.09;100.00;99096.98;105871;1251;60516;-75
2023/01/14 04:47:01;;;;;;;9.00;5.20;;;;;;;5.06;100.00;99093.59;105923;1251;60536;-74
2023/01/14 04:49:28;;;;;;;5.50;3.90;;;;;;;5.06;100.00;99095.73;105907;1251;65225;-77
2023/01/14 04:51:54;;;;;;;10.80;5.20;;;;;;;5.05;100.00;99099.09;105898;1251;60805;-76
2023/01/14 04:54:21;;;;;;;10.70;5.70;;;;;;;5.06;100.00;99096.95;105665;1255;65520;-77
2023/01/14 04:56:48;;;;;;;10.20;7.10;;;;;;;5.06;100.00;99096.79;105907;1256;60450;-79
2023/01/14 04:59:14;;;;;;;11.10;6.50;;;;;;;5.04;100.00;99093.01;105917;1251;60543;-78
2023/01/14 05:01:41;;;;;;;7.90;5.10;;;;;;;5.00;100.00;99091.91;105942;1251;65911;-77
2023/01/14 05:04:08;;;;;;;11.00;5.90;;;;;;;4.95;100.00;99093.36;105564;1251;60485;-79
2023/01/14 05:06:34;;;;;;;13.80;7.60;;;;;;;4.89;100.00;99097.31;105907;1251;64715;-77
2023/01/14 05:09:01;;;;;;;13.10;6.10;;;;;;;4.84;100.00;99096.29;105892;1256;60437;-77
2023/01/14 05:11:27;;;;;;;10.80;5.40;;;;;;;4.79;100.00;99101.07;105889;1256;60428;-75
2023/01/14 05:13:54;;;;;;;7.70;5.10;;;;;;;4.75;100.00;99106.18;105722;1257;66845;-78
2023/01/14 05:16:22;;;;;;;12.80;8.60;;;;;;;4.71;100.00;99105.80;105913;1251;61348;-74
2023/01/14 05:18:50;;;;;;;8.00;5.80;;;;;;;4.66;100.00;99109.52;105659;1259;65277;-78
2023/01/14 05:21:18;;;;;;;9.70;5.50;;;;;;;4.62;100.00;99106.02;105615;1260;60492;-77
2023/01/14 05:23:46;;;;;;;5.90;5.10;;;;;;;4.59;100.00;99107.90;105973;1251;60453;-79
2023/01/14 05:26:13;;;;;;;7.60;4.40;;;;;;;4.57;100.00;99113.39;105926;1251;66371;-73
2023/01/14 05:28:40;;;;;;;7.20;4.20;;;;;;;4.58;100.00;99117.58;105911;1251;61360;-74
2023/01/14 05:31:06;;;;;;;8.50;6.00;;;;;;;4.60;100.00;99119.81;105865;1251;64814;-74
2023/01/14 05:33:34;;;;;;;6.00;5.40;;;;;;;4.60;100.00;99130.02;105899;1256;60435;-75
2023/01/14 05:36:02;;;;;;;6.90;5.00;;;;;;;4.60;100.00;99134.42;105158;1251;1186656;-74
2023/01/14 05:38:29;;;;;;;5.80;4.40;;;;;;;4.59;100.00;99136.20;105947;1251;65633;-74
2023/01/14 05:40:56;;;;;;;6.00;4.40;;;;;;;4.59;100.00;99141.14;105614;1251;61183;-74
2023/01/14 05:46:12;;;;;;;5.70;3.90;;;;;;;4.61;100.00;99148.66;105819;1256;60546;-75
2023/01/14 05:48:39;;;;;;;6.60;3.70;;;;;;;4.62;100.00;99148.58;105895;1251;60417;-73
2023/01/14 05:51:05;;;;;;;5.30;3.60;;;;;;;4.66;100.00;99150.71;105897;1251;66762;-75
2023/01/14 05:53:32;;;;;;;6.20;4.30;;;;;;;4.70;100.00;99159.33;105917;1256;60354;-74
2023/01/14 05:55:59;;;;;;;3.90;3.50;;;;;;;4.73;100.00;99164.16;105867;1254;64281;-76
2023/01/14 05:58:26;;;;;;;5.40;3.60;;;;;;;4.74;100.00;99165.34;105866;1251;60437;-75
2023/01/14 06:06:35;;;;;;;7.60;3.80;;;;;;;4.77;100.00;99166.28;105883;1251;61693;-76
2023/01/14 06:09:05;;;;;;;5.70;4.60;;;;;;;4.77;100.00;99170.33;105897;1251;64450;-75
2023/01/14 06:11:35;;;;;;;7.00;4.10;;;;;;;4.76;100.00;99171.79;105949;1251;60539;-73
2023/01/14 06:14:02;;;;;;;4.40;3.50;;;;;;;4.73;100.00;99169.79;105884;1256;60376;-74
2023/01/14 06:16:39;;;;;;;5.20;3.70;;;;;;;4.72;100.00;99174.77;105946;1251;66661;-76
2023/01/14 06:19:11;;;;;;;5.20;3.60;;;;;;;4.72;100.00;99174.77;105971;1255;61099;-75
2023/01/14 06:21:39;;;;;;;5.60;4.10;;;;;;;4.72;100.00;99180.06;105975;1256;64683;-73
2023/01/14 06:24:06;;;;;;;4.00;3.40;;;;;;;4.72;100.00;99185.52;105886;1251;60418;-73
2023/01/14 06:26:35;;;;;;;5.80;3.90;;;;;;;4.72;100.00;99185.52;105704;1257;60464;-74
2023/01/14 06:29:08;;;;;;;7.80;4.00;;;;;;;4.71;100.00;99185.71;105903;1257;65542;-73
2023/01/14 06:31:36;;;;;;;7.40;4.30;;;;;;;4.71;100.00;99188.52;105860;1256;60733;-75
2023/01/14 06:34:04;;;;;;;6.10;4.90;;;;;;;4.71;100.00;99192.56;105914;1251;65533;-74
2023/01/14 06:36:33;;;;;;;7.40;4.50;;;;;;;4.71;100.00;99191.86;105939;1251;60373;-74
2023/01/14 06:39:00;;;;;;;6.30;4.20;;;;;;;4.71;100.00;99191.15;106045;1251;60669;-74
2023/01/14 06:41:27;;;;;;;8.00;4.60;;;;;;;4.71;100.00;99190.29;105895;1251;66777;-74
2023/01/14 06:43:54;;;;;;;7.40;4.40;;;;;;;4.71;100.00;99191.73;105981;1252;60938;-76
2023/01/14 06:46:20;;;;;;;8.90;5.20;;;;;;;4.71;100.00;99190.81;105943;1255;65492;-73
2023/01/14 06:48:47;;;;;;;7.90;4.70;;;;;;;4.72;100.00;99192.20;105956;1256;60357;-73
2023/01/14 06:51:16;;;;;;;8.70;4.50;;;;;;;4.72;100.00;99196.23;105846;1257;60328;-74
2023/01/14 06:53:43;;;;;;;9.80;4.80;;;;;;;4.73;100.00;99197.77;105917;1250;67097;-77
2023/01/14 06:56:12;;;;;;;10.80;6.10;;;;;;;4.73;100.00;99197.23;105887;1251;61057;-74
2023/01/14 06:58:39;;;;;;;10.70;5.60;;;;;;;4.73;100.00;99199.52;105901;1251;62836;-74
2023/01/14 07:01:09;;;;;;;10.20;6.20;;;;;;;4.72;100.00;99204.16;105863;1251;60497;-73
2023/01/14 07:03:38;;;;;;;12.30;6.40;;;;;;;4.68;100.00;99208.17;105876;1256;60501;-74
2023/01/14 07:06:05;;;;;;;13.80;7.30;;;;;;;4.65;100.00;99212.17;105735;1251;66465;-74
2023/01/14 07:08:32;;;;;;;11.80;6.00;;;;;;;4.63;100.00;99209.26;105935;1256;60631;-73
2023/01/14 07:10:59;;;;;;;12.90;6.70;;;;;;;4.61;100.00;99210.38;105869;1251;65816;-74
2023/01/14 07:13:26;;;;;;;9.70;5.90;;;;;;;4.61;100.00;99210.92;105912;1251;60466;-74
2023/01/14 07:15:53;;;;;;;12.10;5.60;;;;;;;4.60;100.00;99211.30;105862;1250;60460;-75
2023/01/14 07:18:20;;;;;;;16.00;6.40;;;;;;;4.60;100.00;99213.94;105936;1254;66467;-74
2023/01/14 07:20:47;;;;;;;11.70;6.90;;;;;;;4.60;100.00;99210.05;105941;1255;61589;-75
2023/01/14 07:23:14;;;;;;;14.50;7.60;;;;;;;4.64;100.00;99207.81;105720;1254;64674;-74
2023/01/14 07:25:41;;;;;;;16.50;8.60;;;;;;;4.70;100.00;99211.64;105757;1253;60451;-73
2023/01/14 07:28:08;;;;;;;13.80;8.30;;;;;;;4.77;100.00;99212.95;105751;1253;60443;-74
2023/01/14 07:30:34;;;;;;;14.50;8.40;;;;;;;4.84;100.00;99214.25;105778;1253;67164;-77
2023/01/14 07:33:01;;;;;;;12.70;8.40;;;;;;;4.91;100.00;99215.54;105739;1253;60828;-74
2023/01/14 07:35:29;;;;;;;10.70;6.40;;;;;;;4.99;100.00;99220.51;105710;1254;64391;-74
2023/01/14 07:37:58;;;;;;;11.10;5.90;;;;;;;5.06;100.00;99226.38;105792;1253;60526;-74
2023/01/14 07:40:26;;;;;;;5.50;4.60;;;;;;;5.12;100.00;99223.13;105776;1252;60345;-75
2023/01/14 07:42:57;;;;;;;8.90;4.90;;;;;;;5.19;100.00;99223.03;105845;1254;66853;-73
2023/01/14 07:45:25;;;;;;;7.10;5.10;;;;;;;5.27;100.00;99223.95;105584;1254;61388;-72
2023/01/14 07:47:52;;;;;;;10.70;4.40;;;;;;;5.34;100.00;99229.28;105749;1253;65186;-75
2023/01/14 07:50:20;;;;;;;8.50;4.60;;;;;;;5.40;100.00;99226.73;105778;1257;60486;-75
2023/01/14 07:52:58;;;;;;;8.30;4.50;;;;;;;5.47;100.00;99224.14;105762;1253;60504;-74
2023/01/14 07:55:26;;;;;;;8.50;4.00;;;;;;;5.54;100.00;99225.77;105758;1256;65459;-75
2023/01/14 07:57:53;;;;;;;7.80;4.20;;;;;;;5.61;100.00;99228.86;105734;1253;61727;-75
2023/01/14 08:00:21;;;;;;;8.40;3.70;;;;;;;5.65;100.00;99229.36;105688;1253;64673;-72
2023/01/14 08:02:48;;;;;;;6.10;4.00;;;;;;;5.69;100.00;99233.42;105793;1254;60485;-75
2023/01/14 08:05:15;;;;;;;7.90;4.10;;;;;;;5.74;100.00;99240.10;105893;1256;60358;-73
2023/01/14 08:07:41;;;;;;;7.70;4.70;;;;;;;5.79;100.00;99246.75;105770;1255;65448;-75
2023/01/14 08:10:09;;;;;;;7.30;4.00;;;;;;;5.83;100.00;99249.55;105770;1257;60800;-74
2023/01/14 08:12:36;;;;;;;7.10;3.80;;;;;;;5.88;100.00;99258.17;105712;1256;64676;-73
2023/01/14 08:15:06;;;;;;;8.10;4.60;;;;;;;5.93;100.00;99255.86;105795;1253;60544;-75
2023/01/14 08:17:33;;;;;;;10.90;5.40;;;;;;;5.98;100.00;99254.24;105811;1256;60444;-75
2023/01/14 08:20:00;;;;;;;11.00;5.00;;;;;;;6.04;100.00;99252.41;105847;1256;66800;-74
2023/01/14 08:22:29;;;;;;;10.70;6.10;;;;;;;6.10;100.00;99254.95;105647;1254;61811;-75
2023/01/14 08:24:57;;;;;;;8.10;4.40;;;;;;;6.19;100.00;99258.43;105891;1253;65555;-74
2023/01/14 08:27:26;;;;;;;6.90;4.20;;;;;;;6.26;100.00;99257.40;105862;1254;60523;-74
2023/01/14 08:29:54;;;;;;;10.00;4.30;;;;;;;6.33;100.00;99254.96;105961;1256;60442;-74
2023/01/14 08:32:21;;;;;;;7.40;3.70;;;;;;;6.42;100.00;99258.98;105852;1254;64033;-74
2023/01/14 08:34:48;;;;;;;8.40;3.80;;;;;;;6.48;100.00;99257.64;105864;1253;61778;-75
2023/01/14 08:37:14;;;;;;;5.60;4.00;;;;;;;6.54;100.00;99258.77;105790;1254;62425;-75
2023/01/14 08:39:41;;;;;;;6.10;3.80;;;;;;;6.58;100.00;99260.52;105779;1254;60462;-74
2023/01/14 08:42:07;;;;;;;6.90;4.10;;;;;;;6.62;100.00;99268.63;105836;1253;60373;-75
2023/01/14 08:44:34;;;;;;;6.00;4.30;;;;;;;6.67;100.00;99273.52;105797;1254;66415;-74
2023/01/14 08:47:01;;;;;;;7.70;3.90;;;;;;;6.73;100.00;99274.11;105857;1254;69088;-75
2023/01/14 08:49:28;;;;;;;7.20;3.80;;;;;;;6.79;100.00;99275.27;105836;1253;64189;-74
2023/01/14 08:51:55;;;;;;;7.20;3.90;;;;;;;6.83;100.00;99279.48;105829;1253;60447;-75
2023/01/14 08:54:23;;;;;;;7.40;3.90;;;;;;;6.88;100.00;99281.41;105918;1253;60522;-76
2023/01/14 08:56:49;;;;;;;6.80;3.90;;;;;;;6.90;100.00;99285.52;105947;1256;66690;-74
2023/01/14 08:59:16;;;;;;;8.70;4.00;;;;;;;6.92;100.00;99288.42;105883;1256;60548;-73
2023/01/14 09:01:43;;;;;;;4.80;3.50;;;;;;;6.98;100.00;99285.69;105856;1256;63713;-73
2023/01/14 09:04:09;;;;;;;6.80;3.10;;;;;;;7.02;100.00;99281.42;105802;1256;60441;-73
2023/01/14 09:17:04;;;;;;;6.50;4.10;;;;;;;7.06;100.00;99285.31;105845;1253;60435;-78
2023/01/14 09:25:26;;;;;;;10.60;5.90;;;;;;;7.14;100.00;99291.61;102619;1289;600584;-74
2023/01/14 09:27:53;;;;;;;9.30;5.00;;;;;;;7.13;100.00;99291.33;105001;1268;59226;-74
2023/01/14 09:30:21;;;;;;;12.30;6.70;;;;;;;7.19;100.00;99288.93;104990;1264;59228;-74
2023/01/14 09:32:47;;;;;;;11.00;5.30;;;;;;;7.23;100.00;99289.75;104984;1263;65131;-74
2023/01/14 09:35:14;;;;;;;11.60;4.80;;;;;;;7.28;100.00;99291.48;105044;1264;60336;-74
2023/01/14 09:37:41;;;;;;;7.90;4.20;;;;;;;7.35;100.00;99292.21;104996;1264;65555;-74
2023/01/14 09:40:13;;;;;;;10.00;4.40;;;;;;;7.43;100.00;99288.81;105038;1263;234851;-74
2023/01/14 09:42:45;;;;;;;9.10;5.70;;;;;;;7.46;100.00;99286.02;105224;1265;59160;-73
2023/01/14 09:45:13;;;;;;;9.70;4.70;;;;;;;7.46;100.00;99283.54;105248;1265;64784;-74
2023/01/14 09:47:41;;;;;;;10.10;4.30;;;;;;;7.45;100.00;99280.05;105213;1265;60541;-74
2023/01/14 09:50:15;;;;;;;6.00;4.30;;;;;;;7.46;100.00;99280.35;105212;1265;65290;-75
2023/01/14 09:52:57;;;;;;;8.10;3.80;;;;;;;7.50;100.00;99279.99;105272;1263;59798;-75
2023/01/14 09:55:30;;;;;;;7.00;3.60;;;;;;;7.57;100.00;99280.71;105268;1263;59755;-74
2023/01/14 09:58:20;;;;;;;9.30;3.80;;;;;;;7.65;100.00;99283.27;105134;1263;65999;-74
2023/01/14 10:01:08;;;;;;;8.10;3.80;;;;;;;7.72;100.00;99281.33;105105;1263;60472;-73
2023/01/14 10:03:44;;;;;;;7.70;3.90;;;;;;;7.76;100.00;99278.82;105088;1265;64254;-74
2023/01/14 10:06:15;;;;;;;5.80;3.40;;;;;;;7.82;100.00;99280.48;105132;1266;59757;-74
2023/01/14 10:08:51;;;;;;;4.50;3.20;;;;;;;7.89;100.00;99277.80;105098;1262;59679;-73
2023/01/14 10:11:18;;;;;;;7.00;3.10;;;;;;;7.93;100.00;99277.29;105071;1265;64958;-73
2023/01/14 10:13:53;;;;;;;7.20;3.30;;;;;;;7.95;100.00;99274.90;105252;1263;61252;-74
2023/01/14 10:16:31;;;;;;;4.20;2.80;;;;;;;7.91;100.00;99271.88;105081;1266;64286;-74
2023/01/14 10:19:09;;;;;;;5.80;2.80;;;;;;;7.82;100.00;99272.52;105161;1265;59714;-75
2023/01/14 10:21:45;;;;;;;6.10;3.10;;;;;;;7.74;100.00;99270.45;105125;1266;59657;-75
2023/01/14 10:24:14;;;;;;;4.30;2.80;;;;;;;7.69;100.00;99267.55;105105;1263;64741;-74
2023/01/14 10:26:44;;;;;;;7.40;3.40;;;;;;;7.67;100.00;99269.06;105257;1265;59816;-75
2023/01/14 10:29:22;;;;;;;5.90;3.10;;;;;;;7.68;100.00;99265.45;105367;1263;64958;-74
2023/01/14 10:31:55;;;;;;;7.40;3.40;;;;;;;7.73;100.00;99261.31;105209;1263;59719;-73
2023/01/14 10:34:27;;;;;;;8.20;3.40;;;;;;;7.77;100.00;99259.48;105160;1264;59606;-74
2023/01/14 10:36:54;;;;;;;4.80;3.40;;;;;;;7.82;100.00;99259.42;105042;1263;63306;-75
2023/01/14 10:39:21;;;;;;;6.30;2.50;;;;;;;7.89;100.00;99257.82;105153;1262;60386;-75
2023/01/14 10:41:48;;;;;;;5.80;2.80;;;;;;;8.04;100.00;99252.10;105074;1263;64747;-76
2023/01/14 10:44:33;;;;;;;6.50;3.00;;;;;;;8.20;100.00;99244.36;105054;1263;60767;-74
2023/01/14 10:47:13;;;;;;;6.20;3.00;;;;;;;8.35;100.00;99242.67;105308;1267;59718;-74
2023/01/14 10:49:58;;;;;;;4.60;2.70;;;;;;;8.50;100.00;99246.67;105168;1267;65614;-76
2023/01/14 10:52:28;;;;;;;5.70;3.50;;;;;;;8.54;100.00;99249.27;105187;1263;60955;-76
2023/01/14 10:55:11;;;;;;;6.30;3.10;;;;;;;8.55;100.00;99247.61;105148;1264;64418;-74
2023/01/14 10:57:53;;;;;;;5.20;2.80;;;;;;;8.56;100.00;99249.85;105097;1263;59669;-75
2023/01/14 11:00:33;;;;;;;4.80;2.40;;;;;;;8.57;100.00;99250.69;105127;1263;59540;-76
2023/01/14 11:03:04;;;;;;;7.00;2.70;;;;;;;8.58;100.00;99247.45;105105;1262;65651;-76
2023/01/14 11:05:34;;;;;;;;;;;;;;;8.58;100.00;99249.77;105146;1263;60597;-74
2023/01/14 11:08:21;;;;;;;6.50;2.90;;;;;;;8.62;100.00;99249.21;105096;1267;65241;-76
2023/01/14 11:11:00;;;;;;;6.20;2.60;;;;;;;8.66;100.00;99244.93;105103;1266;59734;-74
2023/01/14 11:13:33;;;;;;;4.50;2.40;;;;;;;8.68;100.00;99239.34;105177;1263;59633;-74
2023/01/14 11:16:00;;;;;;;5.10;2.20;;;;;;;8.71;100.00;99238.60;105121;1263;66091;-76
2023/01/14 11:18:30;;;;;;;3.40;2.80;;;;;;;8.72;100.00;99242.26;105110;1263;61635;-75
2023/01/14 11:21:16;;;;;;;7.20;2.50;;;;;;;8.76;100.00;99246.28;105150;1267;64673;-74
2023/01/14 11:23:52;;;;;;;6.70;2.50;;;;;;;8.76;100.00;99236.71;105113;1267;59727;-74
2023/01/14 11:26:33;;;;;;;4.50;2.30;;;;;;;8.75;100.00;99231.49;105125;1267;59662;-74
2023/01/14 11:29:27;;;;;;;5.90;2.90;;;;;;;8.74;100.00;99228.85;105111;1262;65703;-74
2023/01/14 11:32:13;;;;;;;6.50;2.80;;;;;;;8.83;100.00;99220.20;105085;1264;60458;-75
2023/01/14 11:34:55;;;;;;;5.20;2.70;;;;;;;8.90;100.00;99220.34;105074;1263;65589;-73
2023/01/14 11:37:41;;;;;;;4.90;2.50;;;;;;;8.93;100.00;99218.92;105100;1263;59750;-73
2023/01/14 11:43:15;;;;;;;5.00;2.80;;;;;;;8.87;100.00;99213.44;105555;1256;64316;-73
2023/01/14 11:45:42;;;;;;;4.60;2.10;;;;;;;8.74;100.00;99214.15;105410;1262;61351;-74
2023/01/14 11:48:41;;;;;;;5.90;2.60;;;;;;;8.59;100.00;99215.17;105567;1259;64631;-74
2023/01/14 11:51:17;;;;;;;5.80;2.90;;;;;;;8.47;100.00;99207.70;105060;1264;59688;-75
2023/01/14 11:53:48;;;;;;;4.90;2.80;;;;;;;8.47;100.00;99205.56;105038;1263;59659;-75
2023/01/14 11:56:27;;;;;;;8.80;3.60;;;;;;;8.51;100.00;99202.52;105104;1262;65073;-75
2023/01/14 11:58:54;;;;;;;5.20;2.70;;;;;;;8.53;100.00;99197.98;105082;1263;61539;-74
2023/01/14 12:01:28;;;;;;;5.10;2.50;;;;;;;8.44;100.00;99196.54;104933;1266;64436;-74
2023/01/14 12:04:01;;;;;;;5.90;2.80;;;;;;;8.31;100.00;99197.73;105071;1266;59692;-75
2023/01/14 12:06:33;;;;;;;6.50;2.70;;;;;;;8.21;100.00;99199.69;105088;1264;59750;-74
2023/01/14 12:09:04;;;;;;;8.50;3.50;;;;;;;8.12;100.00;99200.20;105087;1263;66035;-75
2023/01/14 12:11:42;;;;;;;3.10;2.40;;;;;;;8.08;100.00;99195.95;105101;1266;60716;-77
2023/01/14 12:17:08;;;;;;;5.10;2.10;;;;;;;8.15;100.00;99191.53;105073;1263;59762;-76
2023/01/14 12:19:46;;;;;;;5.10;2.30;;;;;;;8.20;100.00;99192.31;105083;1262;59727;-74
2023/01/14 12:22:30;;;;;;;4.20;1.90;;;;;;;8.22;100.00;99189.02;105097;1263;65642;-74
2023/01/14 12:25:14;;;;;;;5.00;2.30;;;;;;;8.29;100.00;99180.64;105091;1263;62138;-74